sensor_id;sensor_type;location;lat;lon;timestamp;pressure;altitude;pressure_sealevel;temperature;humidity
24620;BME280;12763;55.802;37.404;2023-04-28T00:01:21;98913.56;;;17.03;75.02
24620;BME280;12763;55.802;37.404;2023-04-28T00:03:47;98907.16;;;17.03;74.91
24620;BME280;12763;55.802;37.404;2023-04-28T00:06:13;98913.84;;;17.07;75.02
24620;BME280;12763;55.802;37.404;2023-04-28T00:08:39;98906.31;;;17.02;75.50
24620;BME280;12763;55.802;37.404;2023-04-28T00:11:11;98907.41;;;16.96;76.39
24620;BME280;12763;55.802;37.404;2023-04-28T00:13:37;98912.13;;;16.91;76.20
24620;BME280;12763;55.802;37.404;2023-04-28T00:16:04;98908.50;;;16.90;76.29
24620;BME280;12763;55.802;37.404;2023-04-28T00:18:30;98914.91;;;16.91;76.68
24620;BME280;12763;55.802;37.404;2023-04-28T00:20:57;98909.63;;;16.94;76.80
24620;BME280;12763;55.802;37.404;2023-04-28T00:23:23;98911.28;;;16.80;77.67
24620;BME280;12763;55.802;37.404;2023-04-28T00:25:55;98902.06;;;16.75;78.35
24620;BME280;12763;55.802;37.404;2023-04-28T00:28:22;98904.28;;;16.73;78.46
24620;BME280;12763;55.802;37.404;2023-04-28T00:30:47;98902.59;;;16.67;79.23
24620;BME280;12763;55.802;37.404;2023-04-28T00:33:13;98898.66;;;16.58;80.39
24620;BME280;12763;55.802;37.404;2023-04-28T00:35:39;98897.56;;;16.59;80.39
24620;BME280;12763;55.802;37.404;2023-04-28T00:38:07;98898.09;;;16.61;80.07
24620;BME280;12763;55.802;37.404;2023-04-28T00:40:36;98892.31;;;16.72;79.87
24620;BME280;12763;55.802;37.404;2023-04-28T00:43:02;98896.19;;;16.71;79.44
24620;BME280;12763;55.802;37.404;2023-04-28T00:45:28;98893.69;;;16.70;79.71
24620;BME280;12763;55.802;37.404;2023-04-28T00:47:56;98900.91;;;16.66;80.22
24620;BME280;12763;55.802;37.404;2023-04-28T00:50:23;98892.53;;;16.66;80.52
24620;BME280;12763;55.802;37.404;2023-04-28T00:52:50;98888.38;;;16.63;80.88
24620;BME280;12763;55.802;37.404;2023-04-28T00:55:17;98874.97;;;16.60;80.81
24620;BME280;12763;55.802;37.404;2023-04-28T00:57:44;98879.69;;;16.55;81.74
24620;BME280;12763;55.802;37.404;2023-04-28T01:00:13;98886.06;;;16.50;82.08
24620;BME280;12763;55.802;37.404;2023-04-28T01:02:39;98888.56;;;16.52;81.90
24620;BME280;12763;55.802;37.404;2023-04-28T01:05:07;98891.41;;;16.57;81.82
24620;BME280;12763;55.802;37.404;2023-04-28T01:07:34;98894.22;;;16.57;81.38
24620;BME280;12763;55.802;37.404;2023-04-28T01:10:04;98888.66;;;16.62;81.36
24620;BME280;12763;55.802;37.404;2023-04-28T01:12:33;98895.88;;;16.58;81.51
24620;BME280;12763;55.802;37.404;2023-04-28T01:14:59;98894.22;;;16.62;81.85
24620;BME280;12763;55.802;37.404;2023-04-28T01:17:26;98895.31;;;16.56;82.03
24620;BME280;12763;55.802;37.404;2023-04-28T01:19:52;98891.41;;;16.57;81.96
24620;BME280;12763;55.802;37.404;2023-04-28T01:22:18;98897.56;;;16.59;82.04
24620;BME280;12763;55.802;37.404;2023-04-28T01:24:45;98894.97;;;16.47;82.68
24620;BME280;12763;55.802;37.404;2023-04-28T01:27:13;98896.03;;;16.36;83.84
24620;BME280;12763;55.802;37.404;2023-04-28T01:29:40;98896.91;;;16.46;83.18
24620;BME280;12763;55.802;37.404;2023-04-28T01:32:06;98901.38;;;16.48;83.52
24620;BME280;12763;55.802;37.404;2023-04-28T01:34:33;98899.69;;;16.46;83.72
24620;BME280;12763;55.802;37.404;2023-04-28T01:36:59;98892.72;;;16.44;84.12
24620;BME280;12763;55.802;37.404;2023-04-28T01:39:25;98893.56;;;16.44;83.78
24620;BME280;12763;55.802;37.404;2023-04-28T01:41:50;98896.06;;;16.46;83.72
24620;BME280;12763;55.802;37.404;2023-04-28T01:44:16;98898.59;;;16.53;83.93
24620;BME280;12763;55.802;37.404;2023-04-28T01:46:42;98899.34;;;16.33;85.02
24620;BME280;12763;55.802;37.404;2023-04-28T01:49:08;98891.97;;;16.54;83.88
24620;BME280;12763;55.802;37.404;2023-04-28T01:51:34;98899.66;;;16.41;84.42
24620;BME280;12763;55.802;37.404;2023-04-28T01:54:01;98899.13;;;16.44;84.66
24620;BME280;12763;55.802;37.404;2023-04-28T01:56:28;98891.34;;;16.46;84.60
24620;BME280;12763;55.802;37.404;2023-04-28T01:58:56;98887.69;;;16.41;84.67
24620;BME280;12763;55.802;37.404;2023-04-28T02:01:22;98898.56;;;16.42;84.73
24620;BME280;12763;55.802;37.404;2023-04-28T02:03:49;98884.84;;;16.26;85.71
24620;BME280;12763;55.802;37.404;2023-04-28T02:06:16;98884.06;;;16.40;84.48
24620;BME280;12763;55.802;37.404;2023-04-28T02:08:41;98878.22;;;16.42;84.46
24620;BME280;12763;55.802;37.404;2023-04-28T02:11:07;98881.03;;;16.47;84.36
24620;BME280;12763;55.802;37.404;2023-04-28T02:13:33;98887.69;;;16.41;84.76
24620;BME280;12763;55.802;37.404;2023-04-28T02:16:00;98889.69;;;16.45;84.59
24620;BME280;12763;55.802;37.404;2023-04-28T02:18:27;98884.66;;;16.42;84.87
24620;BME280;12763;55.802;37.404;2023-04-28T02:20:53;98878.81;;;16.49;84.56
24620;BME280;12763;55.802;37.404;2023-04-28T02:23:18;98882.47;;;16.55;84.15
24620;BME280;12763;55.802;37.404;2023-04-28T02:25:44;98883.84;;;16.52;84.25
24620;BME280;12763;55.802;37.404;2023-04-28T02:28:12;98889.19;;;16.54;84.50
24620;BME280;12763;55.802;37.404;2023-04-28T02:30:38;98886.94;;;16.56;84.11
24620;BME280;12763;55.802;37.404;2023-04-28T02:33:05;98886.06;;;16.50;84.69
24620;BME280;12763;55.802;37.404;2023-04-28T02:35:30;98890.25;;;16.53;84.72
24620;BME280;12763;55.802;37.404;2023-04-28T02:37:57;98892.47;;;16.45;85.01
24620;BME280;12763;55.802;37.404;2023-04-28T02:40:23;98891.91;;;16.49;84.97
24620;BME280;12763;55.802;37.404;2023-04-28T02:42:48;98896.63;;;16.43;85.39
24620;BME280;12763;55.802;37.404;2023-04-28T02:45:15;98891.84;;;16.33;86.56
24620;BME280;12763;55.802;37.404;2023-04-28T02:47:40;98901.34;;;16.42;86.36
24620;BME280;12763;55.802;37.404;2023-04-28T02:50:07;98899.38;;;16.38;86.91
24620;BME280;12763;55.802;37.404;2023-04-28T02:52:33;98902.41;;;16.31;87.26
24620;BME280;12763;55.802;37.404;2023-04-28T02:54:59;98900.75;;;16.35;87.35
24620;BME280;12763;55.802;37.404;2023-04-28T02:57:25;98910.03;;;16.51;86.54
24620;BME280;12763;55.802;37.404;2023-04-28T02:59:51;98913.34;;;16.43;86.93
24620;BME280;12763;55.802;37.404;2023-04-28T03:02:17;98910.81;;;16.46;86.89
24620;BME280;12763;55.802;37.404;2023-04-28T03:04:46;98913.06;;;16.50;87.00
24620;BME280;12763;55.802;37.404;2023-04-28T03:07:12;98908.00;;;16.36;87.41
24620;BME280;12763;55.802;37.404;2023-04-28T03:09:38;98914.16;;;16.43;86.86
24620;BME280;12763;55.802;37.404;2023-04-28T03:12:03;98915.91;;;16.55;86.24
24620;BME280;12763;55.802;37.404;2023-04-28T03:14:31;98918.16;;;16.58;86.68
24620;BME280;12763;55.802;37.404;2023-04-28T03:16:57;98910.63;;;16.58;86.35
24620;BME280;12763;55.802;37.404;2023-04-28T03:19:23;98904.75;;;16.55;86.82
24620;BME280;12763;55.802;37.404;2023-04-28T03:21:51;98923.16;;;16.61;86.14
24620;BME280;12763;55.802;37.404;2023-04-28T03:24:17;98915.41;;;16.68;85.87
24620;BME280;12763;55.802;37.404;2023-04-28T03:26:43;98921.00;;;16.68;86.23
24620;BME280;12763;55.802;37.404;2023-04-28T03:29:09;98922.41;;;16.75;86.30
24620;BME280;12763;55.802;37.404;2023-04-28T03:31:35;98923.25;;;16.76;86.09
24620;BME280;12763;55.802;37.404;2023-04-28T03:34:01;98932.06;;;16.58;87.29
24620;BME280;12763;55.802;37.404;2023-04-28T03:36:28;98950.50;;;16.69;86.76
24620;BME280;12763;55.802;37.404;2023-04-28T03:38:58;98940.81;;;16.86;85.58
24620;BME280;12763;55.802;37.404;2023-04-28T03:41:24;98937.50;;;16.84;85.62
24620;BME280;12763;55.802;37.404;2023-04-28T03:44:08;98941.44;;;17.03;84.80
24620;BME280;12763;55.802;37.404;2023-04-28T03:46:43;98948.41;;;17.01;84.38
24620;BME280;12763;55.802;37.404;2023-04-28T03:49:09;98951.75;;;17.13;83.46
24620;BME280;12763;55.802;37.404;2023-04-28T03:51:35;98942.31;;;17.24;82.37
24620;BME280;12763;55.802;37.404;2023-04-28T03:54:01;98950.69;;;17.29;81.88
24620;BME280;12763;55.802;37.404;2023-04-28T03:56:27;98947.34;;;17.37;81.83
24620;BME280;12763;55.802;37.404;2023-04-28T03:58:53;98945.69;;;17.46;81.88
24620;BME280;12763;55.802;37.404;2023-04-28T04:01:19;98945.69;;;17.41;82.36
24620;BME280;12763;55.802;37.404;2023-04-28T04:03:47;98943.44;;;17.38;82.19
24620;BME280;12763;55.802;37.404;2023-04-28T04:06:13;98958.47;;;17.22;82.72
24620;BME280;12763;55.802;37.404;2023-04-28T04:08:40;98951.22;;;17.26;82.88
24620;BME280;12763;55.802;37.404;2023-04-28T04:11:06;98945.66;;;17.26;82.69
24620;BME280;12763;55.802;37.404;2023-04-28T04:13:33;98943.16;;;17.40;81.95
24620;BME280;12763;55.802;37.404;2023-04-28T04:16:01;98944.06;;;17.55;81.66
24620;BME280;12763;55.802;37.404;2023-04-28T04:18:28;98940.13;;;17.56;81.50
24620;BME280;12763;55.802;37.404;2023-04-28T04:21:26;98954.66;;;17.58;80.97
24620;BME280;12763;55.802;37.404;2023-04-28T04:23:52;98947.97;;;17.80;80.48
24620;BME280;12763;55.802;37.404;2023-04-28T04:26:18;98948.22;;;17.73;80.56
24620;BME280;12763;55.802;37.404;2023-04-28T04:28:46;98959.13;;;17.75;80.62
24620;BME280;12763;55.802;37.404;2023-04-28T04:31:12;98964.13;;;17.63;81.20
24620;BME280;12763;55.802;37.404;2023-04-28T04:33:38;98950.75;;;17.80;80.39
24620;BME280;12763;55.802;37.404;2023-04-28T04:36:05;98959.41;;;17.58;81.51
24620;BME280;12763;55.802;37.404;2023-04-28T04:38:32;98964.06;;;17.37;83.22
24620;BME280;12763;55.802;37.404;2023-04-28T04:41:04;98966.31;;;17.25;84.04
24620;BME280;12763;55.802;37.404;2023-04-28T04:43:30;98978.47;;;16.94;86.11
24620;BME280;12763;55.802;37.404;2023-04-28T04:45:56;98977.38;;;16.95;86.72
24620;BME280;12763;55.802;37.404;2023-04-28T04:48:22;98977.34;;;16.90;87.16
24620;BME280;12763;55.802;37.404;2023-04-28T04:50:47;98975.59;;;16.74;87.92
24620;BME280;12763;55.802;37.404;2023-04-28T04:53:14;98981.97;;;16.64;90.15
24620;BME280;12763;55.802;37.404;2023-04-28T04:55:40;98967.81;;;16.76;89.39
24620;BME280;12763;55.802;37.404;2023-04-28T04:58:07;98969.03;;;17.05;87.82
24620;BME280;12763;55.802;37.404;2023-04-28T05:00:59;98977.03;;;16.81;89.43
24620;BME280;12763;55.802;37.404;2023-04-28T05:03:25;98980.63;;;16.77;90.42
24620;BME280;12763;55.802;37.404;2023-04-28T05:05:52;98981.13;;;16.64;91.47
24620;BME280;12763;55.802;37.404;2023-04-28T05:08:33;98985.63;;;16.70;91.38
24620;BME280;12763;55.802;37.404;2023-04-28T05:10:59;98973.94;;;16.73;91.30
24620;BME280;12763;55.802;37.404;2023-04-28T05:13:25;98983.34;;;16.62;92.04
24620;BME280;12763;55.802;37.404;2023-04-28T05:15:57;98990.66;;;16.73;92.03
24620;BME280;12763;55.802;37.404;2023-04-28T05:18:41;99000.28;;;16.55;93.85
24620;BME280;12763;55.802;37.404;2023-04-28T05:21:07;99012.13;;;16.40;94.94
24620;BME280;12763;55.802;37.404;2023-04-28T05:23:36;99019.16;;;16.43;95.31
24620;BME280;12763;55.802;37.404;2023-04-28T05:26:03;99014.91;;;16.35;96.36
24620;BME280;12763;55.802;37.404;2023-04-28T05:28:29;99021.13;;;16.48;95.86
24620;BME280;12763;55.802;37.404;2023-04-28T05:31:00;99013.66;;;16.53;95.46
24620;BME280;12763;55.802;37.404;2023-04-28T05:33:25;99012.66;;;16.32;97.71
24620;BME280;12763;55.802;37.404;2023-04-28T05:35:52;99023.22;;;16.30;98.50
24620;BME280;12763;55.802;37.404;2023-04-28T05:38:18;99027.72;;;16.36;97.77
24620;BME280;12763;55.802;37.404;2023-04-28T05:40:44;99009.44;;;16.51;97.13
24620;BME280;12763;55.802;37.404;2023-04-28T05:43:11;99003.69;;;16.62;96.70
24620;BME280;12763;55.802;37.404;2023-04-28T05:45:37;99010.94;;;16.68;96.71
24620;BME280;12763;55.802;37.404;2023-04-28T05:48:04;99004.00;;;16.71;97.48
24620;BME280;12763;55.802;37.404;2023-04-28T05:50:30;99004.28;;;16.74;96.85
24620;BME280;12763;55.802;37.404;2023-04-28T05:52:56;99012.91;;;16.68;97.54
24620;BME280;12763;55.802;37.404;2023-04-28T05:55:23;99010.47;;;16.81;97.10
24620;BME280;12763;55.802;37.404;2023-04-28T05:57:49;99013.56;;;16.90;97.19
24620;BME280;12763;55.802;37.404;2023-04-28T06:00:16;98996.81;;;16.85;98.68
24620;BME280;12763;55.802;37.404;2023-04-28T06:02:42;99008.28;;;16.93;98.79
24620;BME280;12763;55.802;37.404;2023-04-28T06:05:08;99006.88;;;16.96;99.61
24620;BME280;12763;55.802;37.404;2023-04-28T06:07:34;99013.84;;;16.93;100.00
24620;BME280;12763;55.802;37.404;2023-04-28T06:10:00;99012.44;;;16.86;100.00
24620;BME280;12763;55.802;37.404;2023-04-28T06:12:26;99014.44;;;17.00;100.00
24620;BME280;12763;55.802;37.404;2023-04-28T06:14:52;99008.34;;;17.03;100.00
24620;BME280;12763;55.802;37.404;2023-04-28T06:17:20;99006.13;;;17.21;100.00
24620;BME280;12763;55.802;37.404;2023-04-28T06:19:47;99008.69;;;17.27;100.00
24620;BME280;12763;55.802;37.404;2023-04-28T06:22:15;99008.38;;;17.24;100.00
24620;BME280;12763;55.802;37.404;2023-04-28T06:24:41;99002.88;;;17.44;100.00
24620;BME280;12763;55.802;37.404;2023-04-28T06:27:10;99002.38;;;17.67;100.00
24620;BME280;12763;55.802;37.404;2023-04-28T06:29:37;99008.22;;;18.01;99.75
24620;BME280;12763;55.802;37.404;2023-04-28T06:32:03;98995.94;;;18.27;97.71
24620;BME280;12763;55.802;37.404;2023-04-28T06:34:29;99002.94;;;18.25;97.46
24620;BME280;12763;55.802;37.404;2023-04-28T06:36:59;99000.69;;;18.27;97.65
24620;BME280;12763;55.802;37.404;2023-04-28T06:39:26;99000.41;;;18.28;97.80
24620;BME280;12763;55.802;37.404;2023-04-28T06:41:52;98992.56;;;18.55;96.94
24620;BME280;12763;55.802;37.404;2023-04-28T06:44:21;98993.97;;;18.53;96.99
24620;BME280;12763;55.802;37.404;2023-04-28T06:46:47;98994.16;;;18.76;95.46
24620;BME280;12763;55.802;37.404;2023-04-28T06:49:13;98985.88;;;18.41;96.97
24620;BME280;12763;55.802;37.404;2023-04-28T06:51:39;98989.78;;;18.30;97.81
24620;BME280;12763;55.802;37.404;2023-04-28T06:54:05;98980.03;;;18.28;97.92
24620;BME280;12763;55.802;37.404;2023-04-28T06:56:34;98984.97;;;18.71;95.91
24620;BME280;12763;55.802;37.404;2023-04-28T06:59:00;98985.03;;;18.26;97.67
24620;BME280;12763;55.802;37.404;2023-04-28T07:01:28;98985.84;;;18.51;96.51
24620;BME280;12763;55.802;37.404;2023-04-28T07:03:54;98984.41;;;18.74;95.37
24620;BME280;12763;55.802;37.404;2023-04-28T07:06:20;98983.63;;;18.38;96.37
24620;BME280;12763;55.802;37.404;2023-04-28T07:08:46;98990.56;;;18.71;94.99
24620;BME280;12763;55.802;37.404;2023-04-28T07:11:12;98991.97;;;18.68;94.45
24620;BME280;12763;55.802;37.404;2023-04-28T07:13:38;98985.72;;;18.97;92.58
24620;BME280;12763;55.802;37.404;2023-04-28T07:16:04;98984.47;;;19.18;90.27
24620;BME280;12763;55.802;37.404;2023-04-28T07:18:30;98979.25;;;19.01;91.09
24620;BME280;12763;55.802;37.404;2023-04-28T07:20:56;98991.19;;;19.22;90.18
24620;BME280;12763;55.802;37.404;2023-04-28T07:23:22;98996.94;;;18.82;91.55
24620;BME280;12763;55.802;37.404;2023-04-28T07:25:48;98996.91;;;18.92;92.18
24620;BME280;12763;55.802;37.404;2023-04-28T07:28:14;98993.59;;;18.80;92.53
24620;BME280;12763;55.802;37.404;2023-04-28T07:30:40;99009.91;;;18.12;96.65
24620;BME280;12763;55.802;37.404;2023-04-28T07:33:06;99018.28;;;17.77;99.26
24620;BME280;12763;55.802;37.404;2023-04-28T07:35:32;99013.50;;;17.62;100.00
24620;BME280;12763;55.802;37.404;2023-04-28T07:37:58;99020.53;;;17.75;100.00
24620;BME280;12763;55.802;37.404;2023-04-28T07:40:24;99014.38;;;17.73;100.00
24620;BME280;12763;55.802;37.404;2023-04-28T07:42:49;99015.50;;;17.77;100.00
24620;BME280;12763;55.802;37.404;2023-04-28T07:45:16;99013.81;;;18.01;99.41
24620;BME280;12763;55.802;37.404;2023-04-28T07:47:42;99018.56;;;18.10;98.46
24620;BME280;12763;55.802;37.404;2023-04-28T07:50:09;99012.13;;;18.35;96.51
24620;BME280;12763;55.802;37.404;2023-04-28T07:52:36;99011.03;;;18.16;97.95
24620;BME280;12763;55.802;37.404;2023-04-28T07:55:02;99007.69;;;18.19;98.17
24620;BME280;12763;55.802;37.404;2023-04-28T07:57:31;99016.63;;;18.11;98.72
24620;BME280;12763;55.802;37.404;2023-04-28T07:59:57;99006.00;;;18.33;97.81
24620;BME280;12763;55.802;37.404;2023-04-28T08:02:23;99008.50;;;18.30;98.21
24620;BME280;12763;55.802;37.404;2023-04-28T08:04:48;99009.03;;;18.47;97.73
24620;BME280;12763;55.802;37.404;2023-04-28T08:07:14;99014.31;;;18.68;96.23
24620;BME280;12763;55.802;37.404;2023-04-28T08:09:40;99012.00;;;18.91;94.51
24620;BME280;12763;55.802;37.404;2023-04-28T08:12:08;99007.50;;;18.95;94.08
24620;BME280;12763;55.802;37.404;2023-04-28T08:14:34;99006.19;;;18.77;94.72
24620;BME280;12763;55.802;37.404;2023-04-28T08:17:00;99003.13;;;18.68;95.31
24620;BME280;12763;55.802;37.404;2023-04-28T08:19:26;99006.81;;;18.29;98.60
24620;BME280;12763;55.802;37.404;2023-04-28T08:21:52;99000.97;;;18.30;98.14
24620;BME280;12763;55.802;37.404;2023-04-28T08:24:18;99010.19;;;18.36;98.41
24620;BME280;12763;55.802;37.404;2023-04-28T08:26:43;99007.66;;;18.44;97.86
24620;BME280;12763;55.802;37.404;2023-04-28T08:29:10;99000.97;;;18.20;99.39
24620;BME280;12763;55.802;37.404;2023-04-28T08:31:35;99013.25;;;18.04;100.00
24620;BME280;12763;55.802;37.404;2023-04-28T08:34:01;99008.78;;;18.13;100.00
24620;BME280;12763;55.802;37.404;2023-04-28T08:36:27;98997.91;;;18.06;100.00
24620;BME280;12763;55.802;37.404;2023-04-28T08:38:57;99010.75;;;18.12;100.00
24620;BME280;12763;55.802;37.404;2023-04-28T08:41:24;99013.00;;;18.05;100.00
24620;BME280;12763;55.802;37.404;2023-04-28T08:43:53;99004.31;;;18.22;100.00
24620;BME280;12763;55.802;37.404;2023-04-28T08:46:20;99013.25;;;18.29;100.00
24620;BME280;12763;55.802;37.404;2023-04-28T08:48:48;99009.34;;;18.10;100.00
24620;BME280;12763;55.802;37.404;2023-04-28T08:51:34;99009.34;;;18.15;100.00
24620;BME280;12763;55.802;37.404;2023-04-28T08:54:02;99016.06;;;18.14;100.00
24620;BME280;12763;55.802;37.404;2023-04-28T08:56:32;99015.22;;;17.88;100.00
24620;BME280;12763;55.802;37.404;2023-04-28T08:59:01;99026.13;;;17.95;100.00
24620;BME280;12763;55.802;37.404;2023-04-28T09:01:28;99020.53;;;18.05;100.00
24620;BME280;12763;55.802;37.404;2023-04-28T09:03:55;99017.72;;;18.30;100.00
24620;BME280;12763;55.802;37.404;2023-04-28T09:06:21;99014.38;;;18.18;100.00
24620;BME280;12763;55.802;37.404;2023-04-28T09:08:47;99022.75;;;18.18;100.00
24620;BME280;12763;55.802;37.404;2023-04-28T09:11:13;99018.00;;;18.24;100.00
24620;BME280;12763;55.802;37.404;2023-04-28T09:13:41;99022.19;;;18.36;100.00
24620;BME280;12763;55.802;37.404;2023-04-28T09:16:07;99027.75;;;18.46;100.00
24620;BME280;12763;55.802;37.404;2023-04-28T09:18:33;99031.41;;;18.42;100.00
24620;BME280;12763;55.802;37.404;2023-04-28T09:21:09;99020.78;;;18.29;100.00
24620;BME280;12763;55.802;37.404;2023-04-28T09:23:55;99016.88;;;18.55;100.00
24620;BME280;12763;55.802;37.404;2023-04-28T09:26:21;99016.81;;;18.70;100.00
24620;BME280;12763;55.802;37.404;2023-04-28T09:28:47;99018.25;;;18.62;100.00
24620;BME280;12763;55.802;37.404;2023-04-28T09:31:23;99018.22;;;18.77;100.00
24620;BME280;12763;55.802;37.404;2023-04-28T09:33:59;99016.47;;;18.87;100.00
24620;BME280;12763;55.802;37.404;2023-04-28T09:36:28;99015.03;;;19.04;100.00
24620;BME280;12763;55.802;37.404;2023-04-28T09:38:59;99001.59;;;19.06;100.00
24620;BME280;12763;55.802;37.404;2023-04-28T09:41:42;99012.03;;;18.75;100.00
24620;BME280;12763;55.802;37.404;2023-04-28T09:44:18;99017.91;;;18.79;100.00
24620;BME280;12763;55.802;37.404;2023-04-28T09:46:46;99011.19;;;18.85;100.00
24620;BME280;12763;55.802;37.404;2023-04-28T09:49:13;99016.47;;;18.87;100.00
24620;BME280;12763;55.802;37.404;2023-04-28T09:51:40;99022.16;;;18.66;100.00
24620;BME280;12763;55.802;37.404;2023-04-28T09:54:06;99031.13;;;18.18;100.00
24620;BME280;12763;55.802;37.404;2023-04-28T09:56:34;99037.00;;;17.91;100.00
24620;BME280;12763;55.802;37.404;2023-04-28T09:59:03;99050.31;;;17.54;100.00
24620;BME280;12763;55.802;37.404;2023-04-28T10:01:37;99051.06;;;17.34;100.00
24620;BME280;12763;55.802;37.404;2023-04-28T10:04:05;99059.16;;;17.31;100.00
24620;BME280;12763;55.802;37.404;2023-04-28T10:06:35;99048.44;;;17.02;100.00
24620;BME280;12763;55.802;37.404;2023-04-28T10:09:02;99059.81;;;16.91;100.00
24620;BME280;12763;55.802;37.404;2023-04-28T10:11:28;99058.81;;;16.60;100.00
24620;BME280;12763;55.802;37.404;2023-04-28T10:13:55;99055.56;;;16.73;100.00
24620;BME280;12763;55.802;37.404;2023-04-28T10:16:21;99055.41;;;16.95;100.00
24620;BME280;12763;55.802;37.404;2023-04-28T10:18:49;99060.47;;;17.08;100.00
24620;BME280;12763;55.802;37.404;2023-04-28T10:21:17;99066.66;;;17.20;100.00
24620;BME280;12763;55.802;37.404;2023-04-28T10:24:08;99066.72;;;17.45;100.00
24620;BME280;12763;55.802;37.404;2023-04-28T10:29:24;99063.78;;;17.77;100.00
24620;BME280;12763;55.802;37.404;2023-04-28T10:32:16;99069.91;;;17.79;100.00
24620;BME280;12763;55.802;37.404;2023-04-28T10:34:42;99071.03;;;17.78;100.00
24620;BME280;12763;55.802;37.404;2023-04-28T10:37:08;99069.06;;;17.79;100.00
24620;BME280;12763;55.802;37.404;2023-04-28T10:39:34;99060.16;;;18.02;100.00
24620;BME280;12763;55.802;37.404;2023-04-28T10:42:00;99073.84;;;18.13;100.00
24620;BME280;12763;55.802;37.404;2023-04-28T10:47:04;99060.97;;;18.73;100.00
24620;BME280;12763;55.802;37.404;2023-04-28T10:55:29;99058.81;;;19.29;100.00
24620;BME280;12763;55.802;37.404;2023-04-28T11:00:48;99058.28;;;19.27;100.00
24620;BME280;12763;55.802;37.404;2023-04-28T11:06:17;99062.38;;;18.81;100.00
24620;BME280;12763;55.802;37.404;2023-04-28T11:08:45;99067.41;;;18.68;100.00
24620;BME280;12763;55.802;37.404;2023-04-28T11:11:12;99068.53;;;18.67;100.00
24620;BME280;12763;55.802;37.404;2023-04-28T11:13:39;99064.88;;;18.82;100.00
24620;BME280;12763;55.802;37.404;2023-04-28T11:16:06;99068.28;;;18.39;100.00
24620;BME280;12763;55.802;37.404;2023-04-28T11:21:21;99067.69;;;18.27;100.00
24620;BME280;12763;55.802;37.404;2023-04-28T11:23:48;99075.78;;;17.98;100.00
24620;BME280;12763;55.802;37.404;2023-04-28T11:26:14;99072.97;;;17.83;100.00
24620;BME280;12763;55.802;37.404;2023-04-28T11:28:52;99077.13;;;17.65;100.00
24620;BME280;12763;55.802;37.404;2023-04-28T11:31:20;99072.81;;;17.32;100.00
24620;BME280;12763;55.802;37.404;2023-04-28T11:33:56;99082.16;;;17.58;100.00
24620;BME280;12763;55.802;37.404;2023-04-28T11:36:28;99082.91;;;17.48;100.00
24620;BME280;12763;55.802;37.404;2023-04-28T11:38:55;99095.84;;;17.02;100.00
24620;BME280;12763;55.802;37.404;2023-04-28T11:41:24;99086.09;;;17.10;100.00
24620;BME280;12763;55.802;37.404;2023-04-28T11:43:52;99086.19;;;17.30;100.00
24620;BME280;12763;55.802;37.404;2023-04-28T11:46:19;99083.13;;;17.32;100.00
24620;BME280;12763;55.802;37.404;2023-04-28T11:48:45;99083.25;;;16.95;100.00
24620;BME280;12763;55.802;37.404;2023-04-28T11:51:31;99070.56;;;17.24;100.00
24620;BME280;12763;55.802;37.404;2023-04-28T11:53:58;99075.56;;;17.17;100.00
24620;BME280;12763;55.802;37.404;2023-04-28T11:56:24;99069.47;;;17.30;100.00
24620;BME280;12763;55.802;37.404;2023-04-28T11:59:01;99084.50;;;17.19;100.00
24620;BME280;12763;55.802;37.404;2023-04-28T12:01:29;99080.28;;;17.17;100.00
24620;BME280;12763;55.802;37.404;2023-04-28T12:03:56;99081.53;;;16.84;100.00
24620;BME280;12763;55.802;37.404;2023-04-28T12:06:22;99076.69;;;17.21;100.00
24620;BME280;12763;55.802;37.404;2023-04-28T12:08:48;99076.97;;;16.68;100.00
24620;BME280;12763;55.802;37.404;2023-04-28T12:11:14;99075.22;;;17.03;100.00
24620;BME280;12763;55.802;37.404;2023-04-28T12:13:42;99076.31;;;16.97;100.00
24620;BME280;12763;55.802;37.404;2023-04-28T12:16:08;99076.69;;;16.69;100.00
24620;BME280;12763;55.802;37.404;2023-04-28T12:18:35;99094.50;;;16.31;100.00
24620;BME280;12763;55.802;37.404;2023-04-28T12:21:02;99090.69;;;16.42;100.00
24620;BME280;12763;55.802;37.404;2023-04-28T12:23:32;99088.41;;;16.71;100.00
24620;BME280;12763;55.802;37.404;2023-04-28T12:26:00;99094.59;;;16.46;100.00
24620;BME280;12763;55.802;37.404;2023-04-28T12:28:37;99090.56;;;16.27;100.00
24620;BME280;12763;55.802;37.404;2023-04-28T12:31:07;99101.75;;;16.32;100.00
24620;BME280;12763;55.802;37.404;2023-04-28T12:33:34;99105.44;;;16.06;100.00
24620;BME280;12763;55.802;37.404;2023-04-28T12:36:05;99092.72;;;16.15;100.00
24620;BME280;12763;55.802;37.404;2023-04-28T12:38:32;99106.56;;;16.10;100.00
24620;BME280;12763;55.802;37.404;2023-04-28T12:40:58;99105.75;;;15.83;100.00
24620;BME280;12763;55.802;37.404;2023-04-28T12:43:23;99109.66;;;15.82;100.00
24620;BME280;12763;55.802;37.404;2023-04-28T12:45:52;99100.72;;;15.53;100.00
24620;BME280;12763;55.802;37.404;2023-04-28T12:48:21;99117.91;;;15.77;100.00
24620;BME280;12763;55.802;37.404;2023-04-28T12:50:49;99109.47;;;15.67;100.00
24620;BME280;12763;55.802;37.404;2023-04-28T12:53:15;99102.31;;;15.71;100.00
24620;BME280;12763;55.802;37.404;2023-04-28T12:55:41;99093.53;;;15.84;100.00
24620;BME280;12763;55.802;37.404;2023-04-28T12:58:07;99106.28;;;15.53;100.00
24620;BME280;12763;55.802;37.404;2023-04-28T13:00:33;99112.03;;;15.47;100.00
24620;BME280;12763;55.802;37.404;2023-04-28T13:02:59;99111.16;;;15.24;100.00
24620;BME280;12763;55.802;37.404;2023-04-28T13:05:25;99104.25;;;15.05;100.00
24620;BME280;12763;55.802;37.404;2023-04-28T13:07:52;99112.00;;;15.03;100.00